Time;durP1;ratioP1;P1;durP2;ratioP2;P2;SDS_P1;SDS_P2;PMS_P1;PMS_P2;Temp;Humidity;BMP_temperature;BMP_pressure;BME280_temperature;BME280_humidity;BME280_pressure;Samples;Min_cycle;Max_cycle;Signal;HPM_P1;HPM_P2
2023/12/31 00:02:49;;;;;;;1999.90;999.90;;;;;;;8.66;100.00;100402.34;10375937;28;20108;-69
2023/12/31 00:07:52;;;;;;;1999.90;999.90;;;;;;;8.49;100.00;100398.03;10376606;28;20053;-69
2023/12/31 00:12:54;;;;;;;1999.90;999.90;;;;;;;8.82;100.00;100387.47;10376556;28;20133;-69
2023/12/31 00:17:56;;;;;;;1999.90;999.90;;;;;;;8.93;100.00;100379.88;10376121;28;20049;-69
2023/12/31 00:22:59;;;;;;;1999.90;999.90;;;;;;;8.84;100.00;100369.97;10376025;28;20053;-69
2023/12/31 00:28:02;;;;;;;1999.90;999.90;;;;;;;9.12;100.00;100355.31;10375957;28;20052;-69
2023/12/31 00:33:04;;;;;;;1999.90;999.90;;;;;;;9.01;100.00;100344.66;10375750;28;20054;-69
2023/12/31 00:38:07;;;;;;;1999.90;999.90;;;;;;;9.10;100.00;100333.69;10374365;28;20499;-70
2023/12/31 00:43:09;;;;;;;1999.90;999.90;;;;;;;9.16;100.00;100319.41;10374215;28;20045;-69
2023/12/31 00:48:12;;;;;;;1999.90;999.90;;;;;;;9.28;100.00;100310.88;10375481;28;20042;-69
2023/12/31 00:53:14;;;;;;;1999.90;999.90;;;;;;;9.05;100.00;100305.22;10375136;28;20509;-69
2023/12/31 00:58:18;;;;;;;1999.90;999.90;;;;;;;9.08;100.00;100284.16;10374755;28;20050;-69
2023/12/31 01:03:20;;;;;;;1999.90;999.90;;;;;;;8.98;100.00;100269.97;10374804;28;20081;-69
2023/12/31 01:08:23;;;;;;;1999.90;999.90;;;;;;;8.93;100.00;100267.63;10374738;28;20413;-69
2023/12/31 01:13:25;;;;;;;1999.90;999.90;;;;;;;9.08;100.00;100252.81;10373104;28;20428;-69
2023/12/31 01:18:28;;;;;;;1999.90;999.90;;;;;;;9.06;100.00;100241.63;10374281;28;20408;-69
2023/12/31 01:23:31;;;;;;;1999.90;999.90;;;;;;;8.97;100.00;100236.94;10374330;28;20137;-69
2023/12/31 01:28:33;;;;;;;1999.90;999.90;;;;;;;8.90;100.00;100227.81;10374406;28;20077;-69
2023/12/31 01:33:36;;;;;;;1999.90;999.90;;;;;;;8.82;100.00;100225.63;10374042;28;20054;-69
2023/12/31 01:38:38;;;;;;;1999.90;999.90;;;;;;;8.66;100.00;100209.22;10381822;22;20046;-68
2023/12/31 01:43:41;;;;;;;1999.90;999.90;;;;;;;8.73;100.00;100210.53;10372816;28;20377;-68
2023/12/31 01:48:43;;;;;;;1999.90;999.90;;;;;;;8.65;100.00;100213.56;10374147;28;20073;-72
2023/12/31 01:53:46;;;;;;;1999.90;999.90;;;;;;;8.52;100.00;100195.22;10356424;28;20050;-72
2023/12/31 01:58:49;;;;;;;1999.90;999.90;;;;;;;8.42;100.00;100190.56;10356614;28;20133;-72
2023/12/31 02:03:51;;;;;;;1999.90;999.90;;;;;;;8.48;100.00;100191.09;10356243;28;20401;-72
2023/12/31 02:08:53;;;;;;;1999.90;999.90;;;;;;;8.43;100.00;100179.25;10372918;28;20060;-72
2023/12/31 02:13:56;;;;;;;1999.90;999.90;;;;;;;8.47;100.00;100165.06;10373979;28;20128;-72
2023/12/31 02:18:58;;;;;;;1999.90;999.90;;;;;;;8.51;100.00;100150.94;10373160;28;20409;-72
2023/12/31 02:24:01;;;;;;;1999.90;999.90;;;;;;;8.50;100.00;100141.44;10355885;28;20484;-73
2023/12/31 02:29:03;;;;;;;1999.90;999.90;;;;;;;8.49;100.00;100129.31;10379444;28;20049;-72
2023/12/31 02:34:06;;;;;;;1999.90;999.90;;;;;;;8.35;100.00;100119.66;10380237;28;20060;-72
2023/12/31 02:39:08;;;;;;;1999.90;999.90;;;;;;;8.41;100.00;100106.25;10378655;28;20484;-72
2023/12/31 02:44:11;;;;;;;1999.90;999.90;;;;;;;8.54;100.00;100109.03;10379876;28;20049;-72
2023/12/31 02:49:13;;;;;;;1999.90;999.90;;;;;;;8.27;100.00;100095.78;10378425;28;20052;-72
2023/12/31 02:54:16;;;;;;;1999.90;999.90;;;;;;;8.46;100.00;100080.78;10379457;28;20061;-72
2023/12/31 02:59:18;;;;;;;1999.90;999.90;;;;;;;8.49;100.00;100062.31;10378252;28;20057;-72
2023/12/31 03:04:20;;;;;;;1999.90;999.90;;;;;;;8.20;100.00;100053.59;10379206;28;20054;-72
2023/12/31 03:09:23;;;;;;;1999.90;999.90;;;;;;;8.21;100.00;100037.03;10378899;28;20057;-72
2023/12/31 03:14:25;;;;;;;1999.90;999.90;;;;;;;8.47;100.00;100026.81;10378796;28;20049;-72
2023/12/31 03:19:27;;;;;;;1999.90;999.90;;;;;;;8.22;100.00;100019.59;10378152;28;20500;-72
2023/12/31 03:24:31;;;;;;;1999.90;999.90;;;;;;;8.55;100.00;100019.34;10377306;28;20062;-72
2023/12/31 03:29:33;;;;;;;1999.90;999.90;;;;;;;8.34;100.00;100008.44;10378056;28;20497;-72
2023/12/31 03:34:35;;;;;;;1999.90;999.90;;;;;;;8.35;100.00;99992.72;10377838;28;20124;-72
2023/12/31 03:39:38;;;;;;;1999.90;999.90;;;;;;;8.48;100.00;99976.31;10377530;28;20093;-72
2023/12/31 03:44:40;;;;;;;1999.90;999.90;;;;;;;8.40;100.00;99955.88;10376588;28;20054;-72
2023/12/31 03:49:42;;;;;;;1999.90;999.90;;;;;;;8.42;100.00;99940.97;10377348;28;20532;-72
2023/12/31 03:54:45;;;;;;;1999.90;999.90;;;;;;;8.38;100.00;99931.69;10377204;28;20046;-72
2023/12/31 03:59:47;;;;;;;1999.90;999.90;;;;;;;8.40;100.00;99914.16;10376899;28;20045;-72
2023/12/31 04:04:49;;;;;;;1999.90;999.90;;;;;;;8.34;100.00;99901.50;10375607;28;20477;-72
2023/12/31 04:09:52;;;;;;;1999.90;999.90;;;;;;;8.29;100.00;99887.94;10375414;28;20479;-72
2023/12/31 04:14:54;;;;;;;1999.90;999.90;;;;;;;8.30;100.00;99879.16;10375194;28;20060;-72
2023/12/31 04:19:57;;;;;;;1999.90;999.90;;;;;;;8.26;100.00;99855.03;10374937;28;20501;-72
2023/12/31 04:24:59;;;;;;;1999.90;999.90;;;;;;;8.25;100.00;99852.53;10375124;28;20085;-72
2023/12/31 04:30:02;;;;;;;1999.90;999.90;;;;;;;8.34;100.00;99838.91;10375958;28;20048;-72
2023/12/31 04:35:05;;;;;;;1999.90;999.90;;;;;;;8.27;100.00;99829.78;10375675;28;20058;-72
2023/12/31 04:40:08;;;;;;;1999.90;999.90;;;;;;;8.35;100.00;99825.78;10374207;28;20089;-72
2023/12/31 04:45:11;;;;;;;1999.90;999.90;;;;;;;8.32;100.00;99818.16;10375395;28;20056;-72
2023/12/31 04:50:13;;;;;;;1999.90;999.90;;;;;;;8.29;100.00;99809.69;10374990;28;20049;-72
2023/12/31 04:55:16;;;;;;;1999.90;999.90;;;;;;;8.46;100.00;99796.41;10375255;28;20054;-72
2023/12/31 05:00:18;;;;;;;1999.90;999.90;;;;;;;8.23;100.00;99794.41;10375020;28;20042;-72
2023/12/31 05:05:21;;;;;;;1999.90;999.90;;;;;;;8.35;100.00;99798.84;10374792;28;20116;-72
2023/12/31 05:10:23;;;;;;;1999.90;999.90;;;;;;;8.36;100.00;99775.28;10373413;28;20050;-72
2023/12/31 05:15:26;;;;;;;1999.90;999.90;;;;;;;8.21;100.00;99765.84;10373337;28;20481;-72
2023/12/31 05:20:28;;;;;;;1999.90;999.90;;;;;;;8.38;100.00;99744.72;10374319;28;20084;-72
2023/12/31 05:25:30;;;;;;;1999.90;999.90;;;;;;;8.42;100.00;99734.91;10374268;28;20142;-72
2023/12/31 05:30:33;;;;;;;1999.90;999.90;;;;;;;8.32;100.00;99732.09;10374308;28;20053;-72
2023/12/31 05:35:35;;;;;;;1999.90;999.90;;;;;;;8.28;100.00;99732.38;10373195;28;20054;-71
2023/12/31 05:40:37;;;;;;;1999.90;999.90;;;;;;;8.36;100.00;99711.84;10373722;28;20050;-72
2023/12/31 05:45:40;;;;;;;1999.90;999.90;;;;;;;8.39;100.00;99709.03;10373907;28;20049;-72
2023/12/31 05:50:43;;;;;;;1999.90;999.90;;;;;;;8.38;100.00;99692.53;10373845;28;20136;-71
2023/12/31 05:55:46;;;;;;;1999.90;999.90;;;;;;;8.44;100.00;99673.09;10372674;28;20129;-72
2023/12/31 06:00:49;;;;;;;1999.90;999.90;;;;;;;8.44;100.00;99677.44;10376599;28;20057;-72
2023/12/31 06:05:51;;;;;;;1999.90;999.90;;;;;;;8.53;100.00;99666.41;10381534;28;20077;-72
2023/12/31 06:10:54;;;;;;;1999.90;999.90;;;;;;;8.52;100.00;99654.31;10381170;28;20050;-72
2023/12/31 06:15:57;;;;;;;1999.90;999.90;;;;;;;8.70;100.00;99645.22;10381038;28;20061;-72
2023/12/31 06:20:59;;;;;;;1999.90;999.90;;;;;;;8.59;100.00;99649.50;10380668;28;20049;-72
2023/12/31 06:26:01;;;;;;;1999.90;999.90;;;;;;;8.41;100.00;99638.53;10380905;28;20084;-72
2023/12/31 06:31:04;;;;;;;1999.90;999.90;;;;;;;8.50;100.00;99643.13;10379375;28;20100;-72
2023/12/31 06:36:07;;;;;;;1999.90;999.90;;;;;;;8.50;100.00;99627.50;10380281;28;20054;-72
2023/12/31 06:41:09;;;;;;;1999.90;999.90;;;;;;;8.60;100.00;99618.09;10379955;28;20049;-71
2023/12/31 06:46:13;;;;;;;1999.90;999.90;;;;;;;8.53;100.00;99601.19;10379885;28;20057;-72
2023/12/31 06:51:15;;;;;;;1999.90;999.90;;;;;;;8.51;100.00;99603.91;10379589;28;20481;-72
2023/12/31 06:56:18;;;;;;;1999.90;999.90;;;;;;;8.36;100.00;99603.13;10379535;28;20049;-72
2023/12/31 07:01:20;;;;;;;1999.90;999.90;;;;;;;8.35;100.00;99592.81;10379438;28;20056;-72
2023/12/31 07:06:23;;;;;;;1999.90;999.90;;;;;;;8.30;100.00;99567.03;10379311;28;20100;-72
2023/12/31 07:11:26;;;;;;;1999.90;999.90;;;;;;;8.39;100.00;99565.59;10377505;28;20049;-72
2023/12/31 07:16:28;;;;;;;1999.90;999.90;;;;;;;8.34;100.00;99552.88;10378855;28;20056;-72
2023/12/31 07:21:30;;;;;;;1999.90;999.90;;;;;;;8.40;100.00;99563.81;10360966;28;20448;-72
2023/12/31 07:26:33;;;;;;;1999.90;999.90;;;;;;;8.23;100.00;99544.09;10377418;28;20053;-72
2023/12/31 07:31:36;;;;;;;1999.90;999.90;;;;;;;8.27;100.00;99553.38;10378466;28;20129;-72
2023/12/31 07:36:38;;;;;;;1999.90;999.90;;;;;;;8.39;100.00;99534.28;10377941;28;20412;-72
2023/12/31 07:41:41;;;;;;;1999.90;999.90;;;;;;;8.54;100.00;99543.72;10377454;28;20058;-71
2023/12/31 07:46:43;;;;;;;1999.90;999.90;;;;;;;8.67;100.00;99553.28;10377669;28;20076;-72
2023/12/31 07:51:45;;;;;;;1999.90;999.90;;;;;;;8.59;100.00;99524.28;10377543;28;20088;-72
2023/12/31 07:56:48;;;;;;;1999.90;999.90;;;;;;;8.64;100.00;99525.66;10376019;28;20079;-72
2023/12/31 08:01:50;;;;;;;1999.90;999.90;;;;;;;8.68;100.00;99529.69;10377114;28;20056;-72
2023/12/31 08:06:52;;;;;;;1999.90;999.90;;;;;;;8.77;100.00;99515.16;10376916;28;20054;-72
2023/12/31 08:11:55;;;;;;;1999.90;999.90;;;;;;;8.67;100.00;99501.94;10376500;28;20053;-72
2023/12/31 08:16:57;;;;;;;1999.90;999.90;;;;;;;8.99;100.00;99514.47;10376632;28;20056;-72
2023/12/31 08:22:00;;;;;;;1999.90;999.90;;;;;;;8.95;100.00;99497.38;10375509;28;20563;-72
2023/12/31 08:27:03;;;;;;;1999.90;999.90;;;;;;;8.93;100.00;99483.59;10376288;28;20056;-72
2023/12/31 08:32:05;;;;;;;1999.90;999.90;;;;;;;9.04;100.00;99468.00;10374756;28;20046;-72
2023/12/31 08:37:07;;;;;;;1999.90;999.90;;;;;;;9.07;100.00;99456.50;10374352;28;20379;-71
2023/12/31 08:42:10;;;;;;;1999.90;999.90;;;;;;;9.06;100.00;99460.91;10375310;28;20058;-72
2023/12/31 08:47:12;;;;;;;1999.90;999.90;;;;;;;9.19;100.00;99454.78;10375334;28;20050;-72
2023/12/31 08:52:14;;;;;;;1999.90;999.90;;;;;;;9.13;100.00;99455.22;10375407;28;20116;-72
2023/12/31 08:57:17;;;;;;;1999.90;999.90;;;;;;;9.35;100.00;99444.88;10373787;28;20488;-72
2023/12/31 09:02:19;;;;;;;1999.90;999.90;;;;;;;9.32;100.00;99439.06;10374981;28;20125;-71
2023/12/31 09:07:22;;;;;;;1999.90;999.90;;;;;;;9.33;100.00;99425.88;10373685;28;20062;-71
2023/12/31 09:12:24;;;;;;;1999.90;999.90;;;;;;;9.55;100.00;99438.16;10374632;28;20046;-71
2023/12/31 09:17:27;;;;;;;1999.90;999.90;;;;;;;9.46;100.00;99431.00;10374507;28;20052;-71
2023/12/31 09:22:29;;;;;;;1999.90;999.90;;;;;;;9.60;100.00;99435.19;10374598;28;20049;-72
2023/12/31 09:27:31;;;;;;;1999.90;999.90;;;;;;;9.51;100.00;99435.91;10374247;28;20481;-71
2023/12/31 09:32:34;;;;;;;1999.90;999.90;;;;;;;9.58;100.00;99450.16;10374179;28;20050;-71
2023/12/31 09:37:37;;;;;;;1999.90;999.90;;;;;;;9.57;100.00;99462.41;10381922;28;20061;-71
2023/12/31 09:42:42;;;;;;;1999.90;999.90;;;;;;;9.65;100.00;99461.84;10382242;28;20500;-71
2023/12/31 09:47:46;;;;;;;1999.90;999.90;;;;;;;9.60;100.00;99463.94;10381025;28;20053;-71
2023/12/31 09:52:49;;;;;;;1999.90;999.90;;;;;;;9.71;100.00;99476.22;10380720;28;20500;-71
2023/12/31 09:57:52;;;;;;;1999.90;999.90;;;;;;;9.49;100.00;99469.97;10381742;28;20064;-70
2023/12/31 10:02:55;;;;;;;1999.90;999.90;;;;;;;9.36;100.00;99484.88;10364000;28;20042;-70
2023/12/31 10:07:58;;;;;;;1999.90;999.90;;;;;;;9.34;100.00;99484.16;10380325;28;20045;-70
2023/12/31 10:13:01;;;;;;;1999.90;999.90;;;;;;;9.31;100.00;99490.44;10380071;28;20100;-70
2023/12/31 10:18:04;;;;;;;1999.90;999.90;;;;;;;9.52;100.00;99484.59;10381084;28;20058;-71
2023/12/31 10:23:09;;;;;;;1999.90;999.90;;;;;;;9.38;100.00;99481.22;10379735;28;20049;-70
2023/12/31 10:28:11;;;;;;;1999.90;999.90;;;;;;;9.43;100.00;99466.03;10380685;28;20081;-70
2023/12/31 10:33:15;;;;;;;1999.90;999.90;;;;;;;9.53;100.00;99481.88;10380468;28;20046;-70
2023/12/31 10:38:18;;;;;;;1999.90;999.90;;;;;;;9.62;100.00;99469.91;10380317;28;20062;-70
2023/12/31 10:43:21;;;;;;;1999.90;999.90;;;;;;;9.48;100.00;99461.31;10380050;28;20124;-70
2023/12/31 10:48:24;;;;;;;1999.90;999.90;;;;;;;9.74;100.00;99465.53;10377895;28;20050;-70
2023/12/31 10:53:27;;;;;;;1999.90;999.90;;;;;;;9.62;100.00;99467.28;10378669;28;20042;-70
2023/12/31 10:58:29;;;;;;;1999.90;999.90;;;;;;;9.68;100.00;99464.19;10378433;28;20508;-70
2023/12/31 11:03:33;;;;;;;1999.90;999.90;;;;;;;9.48;100.00;99471.75;10379191;28;20050;-70
2023/12/31 11:08:37;;;;;;;1999.90;999.90;;;;;;;9.37;100.00;99471.72;10379162;28;20054;-70
2023/12/31 11:13:49;;;;;;;1999.90;999.90;;;;;;;9.21;100.00;99471.16;10378811;28;20050;-70
2023/12/31 11:19:13;;;;;;;1999.90;999.90;;;;;;;9.29;100.00;99466.22;10377657;28;20054;-70
2023/12/31 11:24:18;;;;;;;1999.90;999.90;;;;;;;9.24;100.00;99484.81;10378671;28;20129;-70
2023/12/31 11:29:21;;;;;;;1999.90;999.90;;;;;;;9.05;100.00;99481.91;10377082;28;20046;-70
2023/12/31 11:34:24;;;;;;;1999.90;999.90;;;;;;;9.40;100.00;99478.50;10377840;28;20054;-70
2023/12/31 11:39:27;;;;;;;1999.90;999.90;;;;;;;9.33;100.00;99469.44;10376453;28;20054;-70
2023/12/31 11:44:43;;;;;;;1999.90;999.90;;;;;;;9.45;100.00;99466.75;10377608;28;20054;-70
2023/12/31 11:49:59;;;;;;;1999.90;999.90;;;;;;;9.25;100.00;99476.06;10377334;28;20046;-70
2023/12/31 11:55:02;;;;;;;1999.90;999.90;;;;;;;9.15;100.00;99482.06;10377115;28;20100;-70
2023/12/31 12:00:08;;;;;;;1999.90;999.90;;;;;;;9.18;100.00;99482.69;10375809;28;20453;-70
2023/12/31 12:05:11;;;;;;;1999.90;999.90;;;;;;;9.38;100.00;99472.53;10374830;28;20221;-70
2023/12/31 12:10:14;;;;;;;1999.90;999.90;;;;;;;9.48;100.00;99473.53;10375071;28;20449;-70
2023/12/31 12:15:16;;;;;;;1999.90;999.90;;;;;;;9.36;100.00;99474.44;10374474;28;20134;-70
2023/12/31 12:20:18;;;;;;;1999.90;999.90;;;;;;;9.49;100.00;99470.78;10376102;28;20046;-70
2023/12/31 12:25:21;;;;;;;1999.90;999.90;;;;;;;9.35;100.00;99471.00;10376199;28;20060;-70
2023/12/31 12:30:27;;;;;;;1999.90;999.90;;;;;;;9.75;100.00;99462.81;10375781;28;20104;-70
2023/12/31 12:35:31;;;;;;;1999.90;999.90;;;;;;;9.63;100.00;99463.72;10375844;28;20128;-71
2023/12/31 12:40:34;;;;;;;1999.90;999.90;;;;;;;10.01;100.00;99468.66;10374113;28;20084;-70
2023/12/31 12:45:37;;;;;;;1999.90;999.90;;;;;;;9.97;100.00;99476.84;10375626;28;20104;-70
2023/12/31 12:50:42;;;;;;;1999.90;999.90;;;;;;;10.12;96.32;99470.47;10374036;28;20401;-70
2023/12/31 12:55:45;;;;;;;1999.90;999.90;;;;;;;10.01;94.15;99465.22;10375016;28;20054;-70
2023/12/31 13:00:47;;;;;;;1999.90;999.90;;;;;;;9.80;93.56;99462.44;10373698;28;20485;-71
2023/12/31 13:05:49;;;;;;;1999.90;999.90;;;;;;;9.75;95.59;99470.66;10373658;28;20133;-71
2023/12/31 13:10:53;;;;;;;1999.90;999.90;;;;;;;9.84;94.67;99483.00;10374537;28;20050;-71
2023/12/31 13:15:56;;;;;;;1999.90;999.90;;;;;;;9.54;94.46;99486.13;10373319;28;20446;-70
2023/12/31 13:20:59;;;;;;;1999.90;999.90;;;;;;;9.66;94.61;99506.13;10357375;28;20049;-70
2023/12/31 13:26:03;;;;;;;1999.90;999.90;;;;;;;9.67;95.37;99499.13;10374616;28;20404;-71
2023/12/31 13:31:05;;;;;;;1999.90;999.90;;;;;;;9.82;91.27;99503.22;10374112;28;20052;-71
2023/12/31 13:36:08;;;;;;;1999.90;999.90;;;;;;;9.75;90.70;99511.63;10373008;28;20050;-70
2023/12/31 13:41:11;;;;;;;1999.90;999.90;;;;;;;9.68;89.11;99524.31;10373757;28;20129;-71
2023/12/31 13:46:13;;;;;;;1999.90;999.90;;;;;;;9.51;87.78;99509.88;10373892;28;20505;-70
2023/12/31 13:51:17;;;;;;;1999.90;999.90;;;;;;;9.42;89.45;99508.78;10373870;28;20125;-70
2023/12/31 13:56:20;;;;;;;1999.90;999.90;;;;;;;9.43;87.39;99518.28;10302844;23;20078;-68
2023/12/31 14:01:23;;;;;;;1999.90;999.90;;;;;;;9.32;90.61;99517.41;10292023;28;20086;-69
2023/12/31 14:06:25;;;;;;;1999.90;999.90;;;;;;;9.33;93.40;99511.22;10292763;28;20062;-69
2023/12/31 14:11:27;;;;;;;1999.90;999.90;;;;;;;9.07;91.56;99506.94;10292746;28;20055;-69
2023/12/31 14:16:30;;;;;;;1999.90;999.90;;;;;;;9.52;91.33;99505.50;10292682;28;20051;-69
2023/12/31 14:21:32;;;;;;;1999.90;999.90;;;;;;;9.46;88.99;99506.78;10295004;28;20054;-68
2023/12/31 14:26:35;;;;;;;1999.90;999.90;;;;;;;9.36;89.91;99511.00;10282912;28;20055;-68
2023/12/31 14:31:37;;;;;;;1999.90;999.90;;;;;;;9.16;90.53;99518.50;10299779;28;20049;-69
2023/12/31 14:36:39;;;;;;;1999.90;999.90;;;;;;;9.06;92.03;99527.94;10299532;28;20153;-69
2023/12/31 14:41:42;;;;;;;1999.90;999.90;;;;;;;9.25;91.81;99519.63;10299294;28;20057;-69
2023/12/31 14:46:45;;;;;;;1999.90;999.90;;;;;;;9.04;93.10;99535.03;10299404;28;20146;-69
2023/12/31 14:51:47;;;;;;;1999.90;999.90;;;;;;;9.06;93.29;99530.53;10299058;28;20048;-69
2023/12/31 14:56:50;;;;;;;1999.90;999.90;;;;;;;8.86;92.63;99530.19;10297416;28;20081;-69
2023/12/31 15:01:52;;;;;;;1999.90;999.90;;;;;;;8.89;93.16;99521.28;10298507;28;20046;-69
2023/12/31 15:06:54;;;;;;;1999.90;999.90;;;;;;;8.73;93.39;99525.00;10297204;28;20457;-69
2023/12/31 15:11:57;;;;;;;1999.90;999.90;;;;;;;8.66;95.14;99534.19;10281121;28;20105;-69
2023/12/31 15:16:59;;;;;;;1999.90;999.90;;;;;;;8.79;92.21;99526.31;10296779;28;20422;-69
2023/12/31 15:22:02;;;;;;;1999.90;999.90;;;;;;;8.97;92.59;99526.81;10297787;28;20445;-68
2023/12/31 15:27:04;;;;;;;1999.90;999.90;;;;;;;8.77;91.04;99527.38;10296391;28;20482;-68
2023/12/31 15:32:07;;;;;;;1999.90;999.90;;;;;;;8.74;91.09;99531.88;10297178;28;20557;-68
2023/12/31 15:37:09;;;;;;;1999.90;999.90;;;;;;;8.70;90.82;99522.59;10297273;28;20054;-69
2023/12/31 15:42:12;;;;;;;1999.90;999.90;;;;;;;8.73;89.87;99517.16;10297121;28;20046;-69
2023/12/31 15:47:16;;;;;;;1999.90;999.90;;;;;;;8.64;92.32;99517.81;10295686;28;20379;-69
2023/12/31 15:52:18;;;;;;;1999.90;999.90;;;;;;;8.66;92.10;99517.72;10295376;28;20391;-69
2023/12/31 15:57:21;;;;;;;1999.90;999.90;;;;;;;8.74;90.99;99516.22;10296237;28;20109;-69
2023/12/31 16:02:23;;;;;;;1999.90;999.90;;;;;;;8.71;90.49;99513.00;10296241;28;20145;-69
2023/12/31 16:07:26;;;;;;;1999.90;999.90;;;;;;;8.78;89.17;99519.47;10296095;28;20129;-69
2023/12/31 16:12:28;;;;;;;1999.90;999.90;;;;;;;8.78;88.78;99505.59;10296102;28;20102;-68
2023/12/31 16:17:34;;;;;;;1999.90;999.90;;;;;;;8.67;89.03;99516.75;10294661;28;20051;-68
2023/12/31 16:22:37;;;;;;;1999.90;999.90;;;;;;;8.83;90.07;99525.19;10295796;28;20055;-68
2023/12/31 16:27:39;;;;;;;1999.90;999.90;;;;;;;8.62;92.06;99511.03;10295509;28;20060;-68
2023/12/31 16:32:42;;;;;;;1999.90;999.90;;;;;;;8.90;88.57;99525.59;10294094;28;20508;-68
2023/12/31 16:37:46;;;;;;;1999.90;999.90;;;;;;;8.88;89.56;99517.84;10295214;28;20074;-68
2023/12/31 16:42:48;;;;;;;1999.90;999.90;;;;;;;8.64;93.42;99520.44;10293219;28;20050;-68
2023/12/31 16:47:51;;;;;;;1999.90;999.90;;;;;;;8.93;89.18;99517.53;10294785;28;20076;-68
2023/12/31 16:52:53;;;;;;;1999.90;999.90;;;;;;;8.84;89.35;99526.88;10294312;28;20550;-68
2023/12/31 16:57:55;;;;;;;1999.90;999.90;;;;;;;8.77;89.55;99520.38;10294622;28;20058;-68
2023/12/31 17:02:58;;;;;;;1999.90;999.90;;;;;;;8.83;90.80;99532.19;10294259;28;20050;-68
2023/12/31 17:08:00;;;;;;;1999.90;999.90;;;;;;;8.79;90.68;99528.94;10292901;28;20174;-69
2023/12/31 17:13:03;;;;;;;1999.90;999.90;;;;;;;8.71;90.93;99520.84;10293879;28;20537;-68
2023/12/31 17:18:06;;;;;;;1999.90;999.90;;;;;;;8.76;90.98;99530.94;10292652;28;20055;-68
2023/12/31 17:23:08;;;;;;;1999.90;999.90;;;;;;;8.78;90.28;99519.47;10292439;28;20484;-68
2023/12/31 17:28:11;;;;;;;1999.90;999.90;;;;;;;8.81;91.15;99531.44;10292375;28;20420;-69
2023/12/31 17:33:13;;;;;;;1999.90;999.90;;;;;;;8.72;92.63;99517.25;10292522;28;20050;-69
2023/12/31 17:38:16;;;;;;;1999.90;999.90;;;;;;;8.53;95.70;99528.97;10293554;28;20097;-68
2023/12/31 17:43:19;;;;;;;1999.90;999.90;;;;;;;8.62;96.47;99531.91;10292223;28;20054;-68
2023/12/31 17:48:21;;;;;;;1999.90;999.90;;;;;;;8.79;95.45;99533.34;10293487;28;20059;-68
2023/12/31 17:53:24;;;;;;;1999.90;999.90;;;;;;;8.71;95.76;99536.50;10293097;28;20051;-68
2023/12/31 17:58:26;;;;;;;1999.90;999.90;;;;;;;8.89;92.84;99542.19;10300110;28;20490;-68
2023/12/31 18:03:28;;;;;;;1999.90;999.90;;;;;;;8.82;93.93;99544.38;10300925;28;20074;-69
2023/12/31 18:08:31;;;;;;;1999.90;999.90;;;;;;;8.80;93.56;99548.88;10300742;28;20509;-68
2023/12/31 18:13:33;;;;;;;1999.90;999.90;;;;;;;8.91;92.12;99548.16;10300555;28;20414;-68
2023/12/31 18:18:37;;;;;;;1999.90;999.90;;;;;;;8.71;94.58;99549.53;10299114;28;20047;-68
2023/12/31 18:23:40;;;;;;;1999.90;999.90;;;;;;;8.77;90.20;99546.47;10299155;28;20053;-69
2023/12/31 18:28:42;;;;;;;1999.90;999.90;;;;;;;8.61;94.65;99544.13;10298719;28;20498;-69
2023/12/31 18:33:44;;;;;;;1999.90;999.90;;;;;;;8.80;90.17;99537.63;10300061;28;20054;-69
2023/12/31 18:38:47;;;;;;;1999.90;999.90;;;;;;;8.84;89.94;99541.66;10299734;28;20054;-69
2023/12/31 18:43:50;;;;;;;1999.90;999.90;;;;;;;8.63;92.12;99550.06;10298134;28;20057;-69
2023/12/31 18:48:52;;;;;;;1999.90;999.90;;;;;;;8.57;91.70;99557.47;10299386;28;20062;-70
2023/12/31 18:53:55;;;;;;;1999.90;999.90;;;;;;;8.55;94.00;99555.78;10298837;28;20055;-69
2023/12/31 18:58:58;;;;;;;1999.90;999.90;;;;;;;8.75;89.18;99564.03;10299132;28;20057;-68
2023/12/31 19:04:00;;;;;;;1999.90;999.90;;;;;;;8.66;88.73;99556.84;10298655;28;20138;-68
2023/12/31 19:09:06;;;;;;;1999.90;999.90;;;;;;;8.74;88.52;99576.25;10296813;28;20470;-69
2023/12/31 19:14:10;;;;;;;1999.90;999.90;;;;;;;8.68;91.06;99561.00;10298534;28;20131;-68
2023/12/31 19:19:13;;;;;;;1999.90;999.90;;;;;;;8.55;91.38;99568.00;10298098;28;20050;-68
2023/12/31 19:24:15;;;;;;;1999.90;999.90;;;;;;;8.48;94.18;99570.19;10296839;28;20054;-68
2023/12/31 19:29:19;;;;;;;1999.90;999.90;;;;;;;8.74;90.32;99572.78;10297783;28;20046;-68
2023/12/31 19:34:22;;;;;;;1999.90;999.90;;;;;;;8.67;89.22;99550.69;10296366;28;20418;-68
2023/12/31 19:39:24;;;;;;;1999.90;999.90;;;;;;;8.82;86.54;99572.25;10297499;28;20078;-68
2023/12/31 19:44:26;;;;;;;1999.90;999.90;;;;;;;8.83;89.76;99568.72;10297059;28;20042;-68
2023/12/31 19:49:41;;;;;;;1999.90;999.90;;;;;;;8.80;86.98;99558.50;10297160;28;20050;-68
2023/12/31 19:54:59;;;;;;;1999.90;999.90;;;;;;;8.69;87.83;99575.75;10296516;28;20565;-68
2023/12/31 20:00:02;;;;;;;1999.90;999.90;;;;;;;8.68;92.17;99592.31;10296705;28;20050;-68
2023/12/31 20:05:05;;;;;;;1999.90;999.90;;;;;;;8.66;95.05;99599.44;10296274;28;20054;-68
2023/12/31 20:10:08;;;;;;;1999.90;999.90;;;;;;;8.41;99.74;99615.88;10296278;28;20101;-68
2023/12/31 20:15:10;;;;;;;1999.90;999.90;;;;;;;8.29;100.00;99609.72;10295847;28;20513;-68
2023/12/31 20:20:13;;;;;;;1999.90;999.90;;;;;;;8.21;100.00;99613.78;10294813;28;20081;-68
2023/12/31 20:25:17;;;;;;;1999.90;999.90;;;;;;;8.01;100.00;99621.13;10295593;28;20117;-69
2023/12/31 20:30:19;;;;;;;1999.90;999.90;;;;;;;8.19;100.00;99619.91;10295284;28;20567;-69
2023/12/31 20:35:22;;;;;;;1999.90;999.90;;;;;;;8.26;100.00;99607.31;10294023;28;20109;-69
2023/12/31 20:40:25;;;;;;;1999.90;999.90;;;;;;;8.04;100.00;99625.31;10294949;28;20498;-69
2023/12/31 20:45:27;;;;;;;1999.90;999.90;;;;;;;8.04;100.00;99627.91;10293765;28;20061;-69
2023/12/31 20:50:29;;;;;;;1999.90;999.90;;;;;;;8.09;100.00;99612.81;10294637;28;20136;-68
2023/12/31 20:55:32;;;;;;;1999.90;999.90;;;;;;;8.05;100.00;99624.34;10294545;28;20054;-68
2023/12/31 21:00:35;;;;;;;1999.90;999.90;;;;;;;8.24;100.00;99627.44;10294262;28;20478;-68
2023/12/31 21:05:38;;;;;;;1999.90;999.90;;;;;;;8.10;100.00;99630.97;10294156;28;20047;-68
2023/12/31 21:10:40;;;;;;;1999.90;999.90;;;;;;;8.17;100.00;99641.81;10293036;28;20046;-68
2023/12/31 21:15:43;;;;;;;1999.90;999.90;;;;;;;8.30;100.00;99634.84;10292803;28;20042;-68
2023/12/31 21:20:45;;;;;;;1999.90;999.90;;;;;;;8.17;100.00;99644.44;10292663;28;20486;-68
2023/12/31 21:25:48;;;;;;;1999.90;999.90;;;;;;;8.16;100.00;99646.19;10293708;28;20082;-68
2023/12/31 21:30:50;;;;;;;1999.90;999.90;;;;;;;8.23;100.00;99646.63;10292211;28;20051;-68
2023/12/31 21:35:53;;;;;;;1999.90;999.90;;;;;;;8.20;100.00;99657.25;10293537;28;20532;-68
2023/12/31 21:40:56;;;;;;;1999.90;999.90;;;;;;;8.19;100.00;99653.81;10293345;28;20394;-68
2023/12/31 21:45:59;;;;;;;1999.90;999.90;;;;;;;8.40;100.00;99649.88;10293630;28;20054;-68
2023/12/31 21:51:01;;;;;;;1999.90;999.90;;;;;;;8.40;100.00;99655.09;10293130;28;20409;-68
2023/12/31 21:56:05;;;;;;;1999.90;999.90;;;;;;;8.38;100.00;99655.19;10293245;28;20135;-68
2023/12/31 22:01:27;;;;;;;1999.90;999.90;;;;;;;8.31;99.26;99667.81;10293462;28;20054;-68
2023/12/31 22:06:29;;;;;;;1999.90;999.90;;;;;;;8.34;98.24;99662.41;10292876;28;20051;-68
2023/12/31 22:11:32;;;;;;;1999.90;999.90;;;;;;;8.43;96.78;99650.53;10292989;28;20074;-68